Terminal Aerodrome Forecast
Issued by NWS

Home | Current Version | Previous Version | Text Only | Print | Product List | Glossary On
Versions: 1 2 3 4 5 6 7 8 9 10 11 12 13 14 15 16 17 18 19 20 21 22 23 24 25 26 27 28 29 30 31 32 33 34 35 36 37 38 39 40 41 42 43 44 45 46 47 48 49 50
840
FTUS44 KHGX 311453 AAA
TAFIAH
TAF AMD
KIAH 311453Z 3115/0118 16006KT P6SM FEW012 SCT250
     FM312000 13009KT P6SM VCTS SCT045CB SCT150 BKN250
     FM010300 16005KT P6SM FEW035 BKN250
     FM011000 VRB04KT P6SM BKN015
     FM011500 15006KT P6SM BKN025=

USA.gov is the U.S. government's official web portal to all federal, state and local government web resources and services.